createdAt,value
2019-05-11T00:00:31.377Z,57.98
2019-05-11T00:03:00.901Z,58.06
2019-05-11T00:05:30.423Z,58.33
2019-05-11T00:07:59.985Z,58.52
2019-05-11T00:10:29.595Z,58.67
2019-05-11T00:12:59.115Z,58.61
2019-05-11T00:15:28.669Z,58.73
2019-05-11T00:17:58.184Z,58.86
2019-05-11T00:20:27.691Z,59.15
2019-05-11T00:22:57.235Z,59.42
2019-05-11T00:25:26.755Z,59.47
2019-05-11T00:27:56.298Z,59.79
2019-05-11T00:30:25.844Z,59.97
2019-05-11T00:32:55.378Z,60.17
2019-05-11T00:35:24.874Z,60.43
2019-05-11T00:37:54.441Z,60.54
2019-05-11T00:40:23.942Z,60.70
2019-05-11T00:42:53.454Z,60.75
2019-05-11T00:45:23.102Z,61.06
2019-05-11T00:47:52.618Z,61.20
2019-05-11T00:50:37.621Z,61.19
2019-05-11T00:52:53.417Z,61.25
2019-05-11T00:55:22.939Z,61.26
2019-05-11T00:57:52.446Z,61.17
2019-05-11T01:00:22.394Z,61.28
2019-05-11T01:02:52.180Z,61.21
2019-05-11T01:05:21.704Z,61.24
2019-05-11T01:07:51.245Z,61.34
2019-05-11T01:10:25.566Z,61.27
2019-05-11T01:12:52.010Z,61.29
2019-05-11T01:15:21.553Z,61.44
2019-05-11T01:17:51.076Z,61.61
2019-05-11T01:20:20.707Z,61.75
2019-05-11T01:22:50.267Z,61.82
2019-05-11T01:25:19.778Z,61.93
2019-05-11T01:27:49.313Z,62.21
2019-05-11T01:30:20.434Z,62.21
2019-05-11T01:32:49.973Z,62.35
2019-05-11T01:35:19.479Z,62.52
2019-05-11T01:37:49.044Z,62.21
2019-05-11T01:40:18.767Z,62.19
2019-05-11T01:42:48.289Z,61.92
2019-05-11T01:45:17.922Z,61.84
2019-05-11T01:47:47.440Z,62.26
2019-05-11T01:50:16.963Z,62.17
2019-05-11T01:52:46.518Z,62.46
2019-05-11T01:55:16.053Z,62.66
2019-05-11T01:57:45.559Z,62.97
2019-05-11T02:00:15.296Z,63.21
2019-05-11T02:02:44.822Z,63.28
2019-05-11T02:05:30.718Z,63.45
2019-05-11T02:08:02.295Z,63.83
2019-05-11T02:10:32.445Z,63.86
2019-05-11T02:13:01.998Z,63.82
2019-05-11T02:15:31.816Z,64.04
2019-05-11T02:18:01.340Z,64.01
2019-05-11T02:20:31.007Z,64.06
2019-05-11T02:23:00.532Z,64.10
2019-05-11T02:25:30.047Z,64.19
2019-05-11T02:27:59.593Z,64.16
2019-05-11T02:30:29.187Z,64.22
2019-05-11T02:32:58.681Z,64.41
2019-05-11T02:35:28.243Z,64.48
2019-05-11T02:37:57.723Z,64.64
2019-05-11T02:40:27.450Z,64.89
2019-05-11T02:42:57.014Z,65.01
2019-05-11T02:45:38.078Z,64.76
2019-05-11T02:48:07.716Z,64.90
2019-05-11T02:50:38.758Z,64.92
2019-05-11T02:53:09.240Z,65.09
2019-05-11T02:55:39.841Z,65.24
2019-05-11T02:58:09.659Z,65.43
2019-05-11T03:00:41.619Z,65.70
2019-05-11T03:03:11.701Z,66.03
2019-05-11T03:05:41.334Z,66.25
2019-05-11T03:08:10.953Z,66.45
2019-05-11T03:10:40.501Z,66.60
2019-05-11T03:13:10.042Z,66.92
2019-05-11T03:15:39.506Z,66.77
2019-05-11T03:18:09.067Z,66.80
2019-05-11T03:20:38.576Z,66.47
2019-05-11T03:23:08.193Z,66.14
2019-05-11T03:25:37.848Z,65.59
2019-05-11T03:28:08.544Z,65.27
2019-05-11T03:30:38.202Z,64.88
2019-05-11T03:33:07.767Z,64.38
2019-05-11T03:35:37.275Z,63.98
2019-05-11T03:38:06.879Z,63.44
2019-05-11T03:40:36.451Z,63.17
2019-05-11T03:43:06.107Z,62.89
2019-05-11T03:45:35.595Z,62.22
2019-05-11T03:48:05.162Z,61.94
2019-05-11T03:50:34.665Z,61.37
2019-05-11T03:53:04.305Z,61.21
2019-05-11T03:55:33.870Z,60.87
2019-05-11T03:58:03.394Z,60.20
2019-05-11T04:00:32.908Z,59.84
2019-05-11T04:03:02.477Z,59.71
2019-05-11T04:05:31.879Z,59.12
2019-05-11T04:08:01.281Z,58.80
2019-05-11T04:10:30.848Z,58.74
2019-05-11T04:13:00.351Z,58.73
2019-05-11T04:15:29.748Z,58.84
2019-05-11T04:17:59.193Z,58.63
2019-05-11T04:20:30.239Z,58.46
2019-05-11T04:22:59.736Z,58.02
2019-05-11T04:25:29.164Z,57.57
2019-05-11T04:27:58.591Z,57.57
2019-05-11T04:30:29.843Z,57.34
2019-05-11T04:32:59.366Z,57.01
2019-05-11T04:35:30.643Z,56.65
2019-05-11T04:38:00.096Z,56.65
2019-05-11T04:40:29.639Z,56.16
2019-05-11T04:42:59.026Z,55.26
2019-05-11T04:45:28.509Z,54.31
2019-05-11T04:47:58.411Z,53.89
2019-05-11T04:50:27.803Z,53.90
2019-05-11T04:52:57.187Z,53.22
2019-05-11T04:55:26.716Z,52.92
2019-05-11T04:57:56.208Z,52.02
2019-05-11T05:00:27.159Z,51.21
2019-05-11T05:02:56.607Z,50.95
2019-05-11T05:05:26.097Z,51.01
2019-05-11T05:08:08.688Z,50.65
2019-05-11T05:10:26.730Z,49.86
2019-05-11T05:13:09.611Z,48.35
2019-05-11T05:15:27.494Z,47.63
2019-05-11T05:17:57.043Z,48.05
2019-05-11T05:20:26.455Z,47.64
2019-05-11T05:22:55.859Z,47.40
2019-05-11T05:25:25.486Z,46.98
2019-05-11T05:27:54.990Z,46.76
2019-05-11T05:30:24.367Z,45.67
2019-05-11T05:32:53.804Z,45.82
2019-05-11T05:35:23.304Z,45.69
2019-05-11T05:37:52.891Z,45.77
2019-05-11T05:40:22.317Z,45.50
2019-05-11T05:42:51.719Z,46.49
2019-05-11T05:45:21.225Z,46.58
2019-05-11T05:47:50.766Z,47.58
2019-05-11T05:50:20.528Z,47.29
2019-05-11T05:52:49.962Z,47.93
2019-05-11T05:55:19.688Z,48.57
2019-05-11T05:57:49.250Z,49.30
2019-05-11T06:00:20.249Z,50.09
2019-05-11T06:02:49.781Z,50.10
2019-05-11T06:05:19.407Z,51.49
2019-05-11T06:07:48.802Z,51.52
2019-05-11T06:10:18.543Z,52.12
2019-05-11T06:12:48.052Z,52.00
2019-05-11T06:15:17.582Z,52.38
2019-05-11T06:17:47.032Z,52.52
2019-05-11T06:20:16.994Z,52.02
2019-05-11T06:22:46.777Z,51.98
2019-05-11T06:25:16.304Z,52.17
2019-05-11T06:27:45.690Z,52.47
2019-05-11T06:30:15.282Z,51.26
2019-05-11T06:32:44.813Z,51.46
2019-05-11T06:35:14.828Z,51.59
2019-05-11T06:37:44.321Z,51.87
2019-05-11T06:40:13.950Z,52.32
2019-05-11T06:42:43.321Z,52.13
2019-05-11T06:45:13.135Z,51.75
2019-05-11T06:47:42.660Z,52.02
2019-05-11T06:50:12.462Z,52.76
2019-05-11T06:52:41.858Z,52.99
2019-05-11T06:55:11.869Z,51.70
2019-05-11T06:57:41.366Z,51.79
2019-05-11T07:00:11.369Z,51.84
2019-05-11T07:02:40.854Z,50.78
2019-05-11T07:05:10.757Z,50.74
2019-05-11T07:07:47.553Z,50.84
2019-05-11T07:10:11.773Z,50.11
2019-05-11T07:12:41.255Z,50.41
2019-05-11T07:15:11.327Z,49.22
2019-05-11T07:17:40.957Z,46.10
2019-05-11T07:20:10.437Z,45.92
2019-05-11T07:22:40.004Z,46.55
2019-05-11T07:25:09.658Z,46.92
2019-05-11T07:27:39.030Z,44.09
2019-05-11T07:30:08.991Z,43.99
2019-05-11T07:32:38.476Z,44.20
2019-05-11T07:35:08.581Z,43.92
2019-05-11T07:37:38.714Z,45.08
2019-05-11T07:40:09.155Z,44.50
2019-05-11T07:42:38.662Z,44.70
2019-05-11T07:45:09.060Z,44.51
2019-05-11T07:47:38.712Z,43.85
2019-05-11T07:50:08.613Z,42.37
2019-05-11T07:52:38.191Z,43.18
2019-05-11T07:55:08.709Z,42.77
2019-05-11T07:57:39.159Z,43.18
2019-05-11T08:00:09.372Z,42.08
2019-05-11T08:02:39.080Z,42.72
2019-05-11T08:05:09.366Z,42.31
2019-05-11T08:07:38.886Z,43.05
2019-05-11T08:10:08.943Z,43.01
2019-05-11T08:12:39.300Z,42.26
2019-05-11T08:15:13.259Z,41.59
2019-05-11T08:17:40.947Z,41.16
2019-05-11T08:20:11.451Z,41.00
2019-05-11T08:22:40.853Z,39.70
2019-05-11T08:25:10.498Z,40.32
2019-05-11T08:27:39.977Z,40.58
2019-05-11T08:30:10.730Z,39.42
2019-05-11T08:32:40.177Z,39.36
2019-05-11T08:35:10.316Z,40.06
2019-05-11T08:37:39.798Z,39.43
2019-05-11T08:40:10.032Z,39.06
2019-05-11T08:42:39.511Z,40.01
2019-05-11T08:45:18.828Z,40.71
2019-05-11T08:47:40.144Z,39.68
2019-05-11T08:50:09.824Z,39.40
2019-05-11T08:52:39.402Z,39.08
2019-05-11T08:55:09.643Z,38.18
2019-05-11T08:57:39.102Z,38.75
2019-05-11T09:00:13.634Z,37.16
2019-05-11T09:02:46.630Z,36.23
2019-05-11T09:05:15.205Z,36.43
2019-05-11T09:07:44.781Z,35.87
2019-05-11T09:10:14.370Z,36.58
2019-05-11T09:12:43.863Z,35.73
2019-05-11T09:15:28.048Z,36.44
2019-05-11T09:17:44.774Z,35.56
2019-05-11T09:20:14.553Z,36.46
2019-05-11T09:22:43.959Z,35.00
2019-05-11T09:25:13.659Z,34.75
2019-05-11T09:27:43.579Z,33.51
2019-05-11T09:30:13.425Z,34.03
2019-05-11T09:32:42.819Z,34.57
2019-05-11T09:35:12.511Z,34.64
2019-05-11T09:37:42.043Z,34.39
2019-05-11T09:40:11.632Z,33.83
2019-05-11T09:42:41.052Z,32.77
2019-05-11T09:45:10.657Z,33.33
2019-05-11T09:47:40.165Z,33.12
2019-05-11T09:50:09.774Z,33.35
2019-05-11T09:52:39.192Z,32.92
2019-05-11T09:55:09.543Z,33.40
2019-05-11T09:57:39.028Z,33.19
2019-05-11T10:00:09.775Z,33.53
2019-05-11T10:02:39.246Z,33.66
2019-05-11T10:05:09.168Z,32.52
2019-05-11T10:07:38.586Z,32.71
2019-05-11T10:10:09.248Z,32.88
2019-05-11T10:12:39.025Z,32.52
2019-05-11T10:15:08.911Z,31.64
2019-05-11T10:17:38.580Z,31.79
2019-05-11T10:20:09.421Z,31.24
2019-05-11T10:22:39.173Z,31.48
2019-05-11T10:25:09.269Z,31.02
2019-05-11T10:27:38.760Z,30.87
2019-05-11T10:30:08.701Z,32.18
2019-05-11T10:32:38.409Z,30.60
2019-05-11T10:35:08.270Z,31.02
2019-05-11T10:37:39.244Z,31.13
2019-05-11T10:40:09.698Z,30.17
2019-05-11T10:42:39.277Z,29.25
2019-05-11T10:45:09.778Z,29.79
2019-05-11T10:47:39.266Z,29.79
2019-05-11T10:50:09.447Z,29.32
2019-05-11T10:52:39.064Z,29.66
2019-05-11T10:55:09.036Z,28.22
2019-05-11T10:57:38.865Z,27.93
2019-05-11T11:00:10.385Z,27.37
2019-05-11T11:02:39.986Z,27.72
2019-05-11T11:05:09.459Z,27.54
2019-05-11T11:07:38.870Z,28.07
2019-05-11T11:10:09.542Z,27.43
2019-05-11T11:12:39.449Z,27.82
2019-05-11T11:15:09.472Z,27.79
2019-05-11T11:17:38.877Z,27.32
2019-05-11T11:20:08.808Z,27.93
2019-05-11T11:22:43.637Z,27.69
2019-05-11T11:25:09.918Z,27.50
2019-05-11T11:27:39.414Z,27.90
2019-05-11T11:30:09.386Z,28.55
2019-05-11T11:32:43.400Z,28.52
2019-05-11T11:35:13.064Z,28.38
2019-05-11T11:37:42.548Z,28.28
2019-05-11T11:40:12.050Z,27.87
2019-05-11T11:42:41.483Z,27.58
2019-05-11T11:45:11.793Z,28.11
2019-05-11T11:47:41.373Z,27.32
2019-05-11T11:50:11.111Z,27.90
2019-05-11T11:52:40.485Z,27.75
2019-05-11T11:55:11.114Z,27.31
2019-05-11T11:57:40.620Z,27.97
2019-05-11T12:00:10.327Z,28.30
2019-05-11T12:02:39.793Z,28.80
2019-05-11T12:05:09.802Z,27.92
2019-05-11T12:07:39.202Z,28.48
2019-05-11T12:10:09.000Z,29.14
2019-05-11T12:12:38.934Z,28.42
2019-05-11T12:15:09.254Z,27.61
2019-05-11T12:17:38.702Z,26.47
2019-05-11T12:20:09.046Z,26.97
2019-05-11T12:22:38.899Z,27.12
2019-05-11T12:25:08.408Z,27.34
2019-05-11T12:27:38.514Z,27.95
2019-05-11T12:30:10.193Z,27.33
2019-05-11T12:32:44.510Z,27.63
2019-05-11T12:35:14.196Z,27.40
2019-05-11T12:37:43.955Z,27.32
2019-05-11T12:40:13.678Z,27.93
2019-05-11T12:42:43.069Z,28.25
2019-05-11T12:45:12.952Z,27.23
2019-05-11T12:47:42.466Z,26.91
2019-05-11T12:50:12.195Z,26.59
2019-05-11T12:52:41.583Z,27.28
2019-05-11T12:55:12.436Z,27.72
2019-05-11T12:57:41.947Z,27.88
2019-05-11T13:00:11.520Z,28.17
2019-05-11T13:02:41.017Z,28.43
2019-05-11T13:05:10.825Z,27.98
2019-05-11T13:07:40.338Z,27.94
2019-05-11T13:10:10.037Z,28.17
2019-05-11T13:12:39.491Z,27.92
2019-05-11T13:15:09.421Z,28.69
2019-05-11T13:17:40.979Z,28.33
2019-05-11T13:20:12.856Z,28.31
2019-05-11T13:22:41.943Z,28.18
2019-05-11T13:25:11.681Z,27.96
2019-05-11T13:27:41.262Z,28.25
2019-05-11T13:30:11.093Z,27.81
2019-05-11T13:32:40.531Z,27.23
2019-05-11T13:35:10.113Z,27.24
2019-05-11T13:37:39.677Z,27.32
2019-05-11T13:40:09.699Z,27.27
2019-05-11T13:42:40.023Z,27.61
2019-05-11T13:45:10.300Z,27.05
2019-05-11T13:47:51.300Z,27.33
2019-05-11T13:50:11.313Z,27.32
2019-05-11T13:52:40.693Z,27.47
2019-05-11T13:55:10.323Z,27.58
2019-05-11T13:57:40.678Z,27.52
2019-05-11T14:00:11.356Z,27.40
2019-05-11T14:02:40.870Z,27.63
2019-05-11T14:05:10.447Z,27.21
2019-05-11T14:07:39.836Z,27.42
2019-05-11T14:10:09.991Z,27.09
2019-05-11T14:12:39.521Z,27.38
2019-05-11T14:15:09.297Z,27.20
2019-05-11T14:17:38.776Z,27.32
2019-05-11T14:20:09.241Z,27.54
2019-05-11T14:22:38.934Z,27.53
2019-05-11T14:25:08.996Z,26.73
2019-05-11T14:27:39.234Z,27.22
2019-05-11T14:30:09.709Z,27.35
2019-05-11T14:32:39.241Z,27.35
2019-05-11T14:35:12.087Z,27.45
2019-05-11T14:37:39.957Z,27.52
2019-05-11T14:40:09.881Z,27.69
2019-05-11T14:42:39.287Z,27.95
2019-05-11T14:45:10.036Z,27.18
2019-05-11T14:47:42.667Z,26.68
2019-05-11T14:50:10.862Z,26.30
2019-05-11T14:52:40.249Z,26.61
2019-05-11T14:55:09.765Z,27.05
2019-05-11T14:57:39.806Z,26.59
2019-05-11T15:00:09.937Z,26.56
2019-05-11T15:02:49.628Z,26.83
2019-05-11T15:05:20.903Z,26.70
2019-05-11T15:07:52.658Z,26.62
2019-05-11T15:10:22.993Z,26.95
2019-05-11T15:12:52.398Z,26.94
2019-05-11T15:15:21.975Z,26.46
2019-05-11T15:17:51.523Z,27.08
2019-05-11T15:20:21.220Z,26.77
2019-05-11T15:22:51.102Z,26.88
2019-05-11T15:25:20.609Z,26.90
2019-05-11T15:27:50.057Z,26.54
2019-05-11T15:30:20.853Z,26.58
2019-05-11T15:32:50.383Z,26.48
2019-05-11T15:35:19.771Z,26.83
2019-05-11T15:37:49.306Z,26.92
2019-05-11T15:40:20.523Z,26.55
2019-05-11T15:42:50.101Z,26.66
2019-05-11T15:45:21.288Z,26.61
2019-05-11T15:47:54.324Z,27.18
2019-05-11T15:50:23.991Z,27.10
2019-05-11T15:52:53.543Z,27.63
2019-05-11T15:55:23.047Z,27.32
2019-05-11T15:57:52.521Z,27.80
2019-05-11T16:00:22.654Z,27.94
2019-05-11T16:02:52.278Z,27.91
2019-05-11T16:05:21.666Z,28.00
2019-05-11T16:07:51.072Z,28.25
2019-05-11T16:10:20.729Z,27.69
2019-05-11T16:12:50.244Z,28.14
2019-05-11T16:15:19.893Z,27.76
2019-05-11T16:17:49.931Z,27.87
2019-05-11T16:20:19.636Z,28.51
2019-05-11T16:22:49.153Z,27.62
2019-05-11T16:25:19.867Z,27.61
2019-05-11T16:27:49.998Z,27.24
2019-05-11T16:30:21.716Z,27.24
2019-05-11T16:32:51.262Z,27.54
2019-05-11T16:35:20.642Z,27.12
2019-05-11T16:37:50.028Z,27.35
2019-05-11T16:40:20.784Z,27.51
2019-05-11T16:42:50.737Z,27.89
2019-05-11T16:45:23.614Z,27.88
2019-05-11T16:47:51.659Z,27.92
2019-05-11T16:50:21.107Z,28.52
2019-05-11T16:52:50.523Z,28.72
2019-05-11T16:55:20.018Z,29.11
2019-05-11T16:57:49.504Z,28.74
2019-05-11T17:00:19.318Z,28.85
2019-05-11T17:02:49.342Z,29.06
2019-05-11T17:05:26.328Z,29.32
2019-05-11T17:07:50.156Z,29.60
2019-05-11T17:10:19.775Z,29.96
2019-05-11T17:12:49.255Z,29.66
2019-05-11T17:15:19.333Z,30.33
2019-05-11T17:17:49.184Z,30.43
2019-05-11T17:20:19.253Z,30.48
2019-05-11T17:22:53.722Z,30.77
2019-05-11T17:25:22.051Z,30.75
2019-05-11T17:27:51.435Z,30.91
2019-05-11T17:30:22.501Z,31.23
2019-05-11T17:32:52.388Z,31.41
2019-05-11T17:35:21.785Z,31.62
2019-05-11T17:37:51.158Z,32.01
2019-05-11T17:40:23.458Z,32.47
2019-05-11T17:42:53.855Z,32.74
2019-05-11T17:45:23.207Z,32.98
2019-05-11T17:47:52.670Z,33.44
2019-05-11T17:50:22.158Z,33.35
2019-05-11T17:52:51.649Z,33.91
2019-05-11T17:55:21.083Z,34.08
2019-05-11T17:57:53.778Z,34.46
2019-05-11T18:00:21.949Z,34.68
2019-05-11T18:02:51.468Z,34.93
2019-05-11T18:05:20.979Z,35.28
2019-05-11T18:07:50.457Z,36.14
2019-05-11T18:10:20.241Z,37.12
2019-05-11T18:12:49.711Z,38.04
2019-05-11T18:15:19.922Z,39.72
2019-05-11T18:17:49.472Z,39.88
2019-05-11T18:20:28.637Z,40.40
2019-05-11T18:22:58.393Z,40.81
2019-05-11T18:25:28.874Z,41.06
2019-05-11T18:27:58.532Z,41.83
2019-05-11T18:30:29.345Z,42.00
2019-05-11T18:32:59.464Z,42.51
2019-05-11T18:35:29.213Z,42.85
2019-05-11T18:37:58.737Z,42.87
2019-05-11T18:40:28.795Z,42.78
2019-05-11T18:42:58.294Z,43.01
2019-05-11T18:45:28.829Z,43.46
2019-05-11T18:47:58.308Z,43.71
2019-05-11T18:50:30.901Z,43.89
2019-05-11T18:52:59.011Z,43.01
2019-05-11T18:55:28.386Z,43.93
2019-05-11T18:57:58.166Z,44.49
2019-05-11T19:00:27.821Z,45.19
2019-05-11T19:02:57.981Z,46.10
2019-05-11T19:05:29.195Z,46.48
2019-05-11T19:07:58.795Z,47.88
2019-05-11T19:10:28.296Z,48.39
2019-05-11T19:12:59.134Z,48.96
2019-05-11T19:15:28.584Z,48.91
2019-05-11T19:17:58.270Z,49.31
2019-05-11T19:20:28.469Z,49.78
2019-05-11T19:22:59.076Z,50.16
2019-05-11T19:25:28.737Z,50.68
2019-05-11T19:28:00.511Z,49.59
2019-05-11T19:30:29.899Z,49.84
2019-05-11T19:32:59.280Z,49.63
2019-05-11T19:35:28.909Z,50.24
2019-05-11T19:37:58.353Z,50.65
2019-05-11T19:40:27.770Z,50.79
2019-05-11T19:42:59.127Z,51.30
2019-05-11T19:45:29.557Z,51.14
2019-05-11T19:47:59.320Z,51.90
2019-05-11T19:50:28.751Z,51.83
2019-05-11T19:52:58.159Z,51.83
2019-05-11T19:55:28.554Z,52.22
2019-05-11T19:57:58.375Z,52.18
2019-05-11T20:00:27.763Z,52.27
2019-05-11T20:02:58.533Z,53.11
2019-05-11T20:05:28.881Z,52.76
2019-05-11T20:07:58.907Z,52.51
2019-05-11T20:10:28.531Z,53.30
2019-05-11T20:12:58.858Z,53.67
2019-05-11T20:15:28.397Z,53.55
2019-05-11T20:17:58.682Z,53.83
2019-05-11T20:20:28.609Z,53.80
2019-05-11T20:22:58.571Z,53.78
2019-05-11T20:25:28.774Z,54.50
2019-05-11T20:27:58.726Z,54.21
2019-05-11T20:30:28.280Z,54.13
2019-05-11T20:32:57.761Z,54.59
2019-05-11T20:35:28.017Z,54.68
2019-05-11T20:37:58.094Z,54.55
2019-05-11T20:40:28.559Z,54.30
2019-05-11T20:42:58.748Z,54.29
2019-05-11T20:45:28.805Z,54.80
2019-05-11T20:47:58.334Z,55.09
2019-05-11T20:50:27.763Z,54.77
2019-05-11T20:52:58.170Z,54.81
2019-05-11T20:55:28.421Z,55.08
2019-05-11T20:57:58.489Z,55.69
2019-05-11T21:00:28.199Z,55.70
2019-05-11T21:02:58.779Z,55.91
2019-05-11T21:05:28.592Z,56.09
2019-05-11T21:07:58.097Z,56.80
2019-05-11T21:10:28.046Z,57.63
2019-05-11T21:12:57.949Z,58.20
2019-05-11T21:15:28.162Z,58.65
2019-05-11T21:17:58.609Z,59.35
2019-05-11T21:20:28.717Z,59.16
2019-05-11T21:22:58.526Z,59.76
2019-05-11T21:25:28.742Z,59.80
2019-05-11T21:27:58.526Z,60.00
2019-05-11T21:30:28.320Z,59.51
2019-05-11T21:32:58.443Z,59.22
2019-05-11T21:35:28.261Z,58.76
2019-05-11T21:37:58.162Z,58.99
2019-05-11T21:40:29.036Z,59.19
2019-05-11T21:42:58.757Z,59.03
2019-05-11T21:45:28.525Z,59.20
2019-05-11T21:47:58.226Z,59.19
2019-05-11T21:50:28.050Z,59.51
2019-05-11T21:52:58.970Z,59.88
2019-05-11T21:55:29.419Z,60.20
2019-05-11T21:57:59.142Z,60.66
2019-05-11T22:00:30.630Z,60.91
2019-05-11T22:03:00.123Z,61.08
2019-05-11T22:05:29.553Z,61.24
2019-05-11T22:07:58.955Z,61.48
2019-05-11T22:10:28.544Z,61.44
2019-05-11T22:12:58.051Z,61.47
2019-05-11T22:15:28.396Z,61.00
2019-05-11T22:17:58.670Z,61.59
2019-05-11T22:20:28.750Z,63.05
2019-05-11T22:22:58.761Z,63.69
2019-05-11T22:25:28.681Z,64.07
2019-05-11T22:27:58.385Z,65.25
2019-05-11T22:30:28.010Z,65.83
2019-05-11T22:32:58.285Z,66.50
2019-05-11T22:35:28.593Z,66.91
2019-05-11T22:37:58.329Z,68.88
2019-05-11T22:40:28.272Z,69.87
2019-05-11T22:43:01.012Z,70.24
2019-05-11T22:45:29.121Z,71.46
2019-05-11T22:47:58.664Z,71.90
2019-05-11T22:50:29.099Z,73.43
2019-05-11T22:52:58.705Z,73.71
2019-05-11T22:55:28.199Z,73.90
2019-05-11T22:57:58.027Z,74.67
2019-05-11T23:00:42.340Z,75.60
2019-05-11T23:03:12.260Z,76.30
2019-05-11T23:05:42.810Z,77.59
2019-05-11T23:08:12.478Z,78.61
2019-05-11T23:10:41.899Z,80.23
2019-05-11T23:13:11.764Z,82.11
2019-05-11T23:15:41.586Z,82.17
2019-05-11T23:18:11.105Z,82.92
2019-05-11T23:20:40.487Z,83.42
2019-05-11T23:23:10.247Z,83.99
2019-05-11T23:25:39.676Z,84.67
2019-05-11T23:28:09.090Z,85.57
2019-05-11T23:30:39.081Z,86.29
2019-05-11T23:33:08.695Z,87.79
2019-05-11T23:35:38.438Z,88.64
2019-05-11T23:38:07.937Z,89.38
2019-05-11T23:40:38.059Z,89.89
2019-05-11T23:43:08.764Z,88.82
2019-05-11T23:45:38.468Z,86.89
2019-05-11T23:48:07.936Z,85.59
2019-05-11T23:50:38.576Z,84.06
2019-05-11T23:53:10.274Z,82.94
2019-05-11T23:55:39.540Z,82.38
2019-05-11T23:58:08.916Z,83.12
